KBPI/BPI METAR and TAF weather

Enter ICAO airport designator
Station Type Date Time Source
KBPI METAR 2021/01/16 02:53 UTC NOAA

KBPI 160253Z AUTO 11005KT 10SM CLR M02/M08 A3016 RMK AO2 SLP244 T10171083 58013


Station Type Date Time Source
KBPI Decoded METAR 2021/01/16 02:53 UTC NOAA

BIG PINEY-MARBLETON AIRPORT, WY, United States (KBPI) 42-35N 110-06W 2117M
Jan 15, 2021 - 09:53 PM EST / 2021.01.16 0253 UTC
Wind: from the ESE (110 degrees) at 6 MPH (5 KT):0
Visibility: 10 mile(s):0
Sky conditions: clear
Temperature: 28.9 F (-1.7 C)
Windchill: 23 F (-5 C):1
Dew Point: 17.1 F (-8.3 C)
Relative Humidity: 60%
Pressure (altimeter): 30.16 in. Hg (1021 hPa)
Pressure tendency: 0.04 inches (1.3 hPa) lower than three hours ago
ob: KBPI 160253Z AUTO 11005KT 10SM CLR M02/M08 A3016 RMK AO2 SLP244 T10171083 58013
cycle: 3

Station Type Date Time Source
KBPI TAF 2021/01/16 02:39 UTC NOAA

TAF
AMD KBPI 160136Z 1602/1624 03006KT P6SM BKN200
FM160600 35008KT P6SM VCSH BKN070
FM161100 35008KT P6SM SKC

Example: see airport list